sensor_id;sensor_type;location;lat;lon;timestamp;P1;durP1;ratioP1;P2;durP2;ratioP2
38683;SDS011;24910;53.248;-6.134;2022-09-30T00:01:54;12.27;;;7.95;;
38683;SDS011;24910;53.248;-6.134;2022-09-30T00:04:24;16.02;;;8.00;;
38683;SDS011;24910;53.248;-6.134;2022-09-30T00:06:54;12.45;;;7.93;;
38683;SDS011;24910;53.248;-6.134;2022-09-30T00:09:23;15.50;;;7.90;;
38683;SDS011;24910;53.248;-6.134;2022-09-30T00:11:53;11.57;;;7.60;;
38683;SDS011;24910;53.248;-6.134;2022-09-30T00:14:26;12.15;;;6.97;;
38683;SDS011;24910;53.248;-6.134;2022-09-30T00:19:49;9.85;;;6.03;;
38683;SDS011;24910;53.248;-6.134;2022-09-30T00:22:18;8.07;;;5.57;;
38683;SDS011;24910;53.248;-6.134;2022-09-30T00:24:47;8.30;;;5.75;;
38683;SDS011;24910;53.248;-6.134;2022-09-30T00:27:17;10.20;;;6.07;;
38683;SDS011;24910;53.248;-6.134;2022-09-30T00:29:48;9.63;;;6.38;;
38683;SDS011;24910;53.248;-6.134;2022-09-30T00:32:17;11.18;;;6.75;;
38683;SDS011;24910;53.248;-6.134;2022-09-30T00:34:46;9.02;;;6.30;;
38683;SDS011;24910;53.248;-6.134;2022-09-30T00:37:15;8.68;;;6.03;;
38683;SDS011;24910;53.248;-6.134;2022-09-30T00:39:44;10.65;;;6.72;;
38683;SDS011;24910;53.248;-6.134;2022-09-30T00:42:13;11.52;;;6.07;;
38683;SDS011;24910;53.248;-6.134;2022-09-30T00:44:49;11.40;;;6.93;;
38683;SDS011;24910;53.248;-6.134;2022-09-30T00:47:30;10.23;;;6.57;;
38683;SDS011;24910;53.248;-6.134;2022-09-30T00:56:25;10.07;;;6.32;;
38683;SDS011;24910;53.248;-6.134;2022-09-30T00:58:59;8.95;;;5.95;;
38683;SDS011;24910;53.248;-6.134;2022-09-30T01:01:34;9.45;;;5.82;;
38683;SDS011;24910;53.248;-6.134;2022-09-30T01:04:10;8.88;;;6.10;;
38683;SDS011;24910;53.248;-6.134;2022-09-30T01:06:43;10.82;;;6.07;;
38683;SDS011;24910;53.248;-6.134;2022-09-30T01:09:12;11.40;;;6.45;;
38683;SDS011;24910;53.248;-6.134;2022-09-30T01:11:42;8.10;;;5.75;;
38683;SDS011;24910;53.248;-6.134;2022-09-30T01:14:11;9.27;;;5.72;;
38683;SDS011;24910;53.248;-6.134;2022-09-30T01:16:48;10.60;;;6.07;;
38683;SDS011;24910;53.248;-6.134;2022-09-30T01:22:32;9.20;;;5.88;;
38683;SDS011;24910;53.248;-6.134;2022-09-30T01:31:16;9.48;;;5.93;;
38683;SDS011;24910;53.248;-6.134;2022-09-30T01:34:00;11.13;;;6.20;;
38683;SDS011;24910;53.248;-6.134;2022-09-30T01:36:37;8.35;;;5.32;;
38683;SDS011;24910;53.248;-6.134;2022-09-30T01:39:20;6.97;;;4.85;;
38683;SDS011;24910;53.248;-6.134;2022-09-30T01:41:58;8.77;;;4.68;;
38683;SDS011;24910;53.248;-6.134;2022-09-30T01:47:39;8.75;;;3.97;;
38683;SDS011;24910;53.248;-6.134;2022-09-30T01:50:13;7.20;;;4.35;;
38683;SDS011;24910;53.248;-6.134;2022-09-30T01:52:48;6.40;;;4.32;;
38683;SDS011;24910;53.248;-6.134;2022-09-30T01:55:24;7.18;;;4.65;;
38683;SDS011;24910;53.248;-6.134;2022-09-30T01:58:03;8.25;;;4.78;;
38683;SDS011;24910;53.248;-6.134;2022-09-30T02:00:39;7.40;;;4.32;;
38683;SDS011;24910;53.248;-6.134;2022-09-30T02:03:14;5.45;;;3.88;;
38683;SDS011;24910;53.248;-6.134;2022-09-30T02:05:52;6.82;;;4.85;;
38683;SDS011;24910;53.248;-6.134;2022-09-30T02:08:24;6.93;;;4.25;;
38683;SDS011;24910;53.248;-6.134;2022-09-30T02:10:58;7.63;;;4.10;;
38683;SDS011;24910;53.248;-6.134;2022-09-30T02:13:33;6.93;;;4.20;;
38683;SDS011;24910;53.248;-6.134;2022-09-30T02:16:07;8.43;;;4.60;;
38683;SDS011;24910;53.248;-6.134;2022-09-30T02:18:43;8.98;;;4.20;;
38683;SDS011;24910;53.248;-6.134;2022-09-30T02:21:18;6.18;;;3.75;;
38683;SDS011;24910;53.248;-6.134;2022-09-30T02:23:51;4.72;;;3.08;;
38683;SDS011;24910;53.248;-6.134;2022-09-30T02:26:27;5.45;;;3.20;;
38683;SDS011;24910;53.248;-6.134;2022-09-30T02:28:58;4.10;;;2.80;;
38683;SDS011;24910;53.248;-6.134;2022-09-30T02:31:33;4.43;;;2.65;;
38683;SDS011;24910;53.248;-6.134;2022-09-30T02:34:07;3.72;;;2.55;;
38683;SDS011;24910;53.248;-6.134;2022-09-30T02:36:40;3.88;;;2.10;;
38683;SDS011;24910;53.248;-6.134;2022-09-30T02:39:17;2.60;;;2.10;;
38683;SDS011;24910;53.248;-6.134;2022-09-30T02:42:12;5.80;;;2.60;;
38683;SDS011;24910;53.248;-6.134;2022-09-30T02:44:46;2.75;;;2.10;;
38683;SDS011;24910;53.248;-6.134;2022-09-30T02:47:20;3.13;;;2.22;;
38683;SDS011;24910;53.248;-6.134;2022-09-30T02:49:59;4.15;;;2.38;;
38683;SDS011;24910;53.248;-6.134;2022-09-30T02:52:38;2.97;;;2.00;;
38683;SDS011;24910;53.248;-6.134;2022-09-30T02:55:17;4.10;;;2.40;;
38683;SDS011;24910;53.248;-6.134;2022-09-30T02:57:53;5.22;;;2.17;;
38683;SDS011;24910;53.248;-6.134;2022-09-30T03:00:27;2.55;;;1.95;;
38683;SDS011;24910;53.248;-6.134;2022-09-30T03:02:58;4.30;;;2.28;;
38683;SDS011;24910;53.248;-6.134;2022-09-30T03:05:33;3.85;;;2.05;;
38683;SDS011;24910;53.248;-6.134;2022-09-30T03:08:02;2.97;;;1.80;;
38683;SDS011;24910;53.248;-6.134;2022-09-30T03:10:32;2.60;;;1.80;;
38683;SDS011;24910;53.248;-6.134;2022-09-30T03:13:23;4.18;;;1.90;;
38683;SDS011;24910;53.248;-6.134;2022-09-30T03:16:17;2.65;;;1.90;;
38683;SDS011;24910;53.248;-6.134;2022-09-30T03:18:56;3.17;;;1.77;;
38683;SDS011;24910;53.248;-6.134;2022-09-30T03:27:16;4.45;;;1.45;;
38683;SDS011;24910;53.248;-6.134;2022-09-30T03:30:00;3.08;;;1.50;;
38683;SDS011;24910;53.248;-6.134;2022-09-30T03:32:36;3.90;;;1.40;;
38683;SDS011;24910;53.248;-6.134;2022-09-30T03:35:17;3.83;;;1.40;;
38683;SDS011;24910;53.248;-6.134;2022-09-30T03:37:57;1.90;;;1.00;;
38683;SDS011;24910;53.248;-6.134;2022-09-30T03:40:33;2.90;;;1.00;;
38683;SDS011;24910;53.248;-6.134;2022-09-30T03:43:07;1.27;;;1.02;;
38683;SDS011;24910;53.248;-6.134;2022-09-30T03:45:47;1.70;;;1.00;;
38683;SDS011;24910;53.248;-6.134;2022-09-30T03:48:19;2.70;;;0.70;;
38683;SDS011;24910;53.248;-6.134;2022-09-30T03:50:50;0.88;;;0.60;;
38683;SDS011;24910;53.248;-6.134;2022-09-30T03:53:21;0.98;;;0.60;;
38683;SDS011;24910;53.248;-6.134;2022-09-30T03:55:52;0.90;;;0.52;;
38683;SDS011;24910;53.248;-6.134;2022-09-30T03:58:21;1.13;;;0.47;;
38683;SDS011;24910;53.248;-6.134;2022-09-30T04:00:52;1.83;;;0.57;;
38683;SDS011;24910;53.248;-6.134;2022-09-30T04:03:23;2.80;;;0.80;;
38683;SDS011;24910;53.248;-6.134;2022-09-30T04:05:53;2.03;;;0.60;;
38683;SDS011;24910;53.248;-6.134;2022-09-30T04:08:24;2.30;;;0.70;;
38683;SDS011;24910;53.248;-6.134;2022-09-30T04:10:59;3.63;;;0.70;;
38683;SDS011;24910;53.248;-6.134;2022-09-30T04:13:28;1.08;;;0.50;;
38683;SDS011;24910;53.248;-6.134;2022-09-30T04:15:57;1.20;;;0.75;;
38683;SDS011;24910;53.248;-6.134;2022-09-30T04:18:27;3.97;;;0.70;;
38683;SDS011;24910;53.248;-6.134;2022-09-30T04:21:00;5.10;;;0.70;;
38683;SDS011;24910;53.248;-6.134;2022-09-30T04:23:35;3.13;;;0.70;;
38683;SDS011;24910;53.248;-6.134;2022-09-30T04:26:04;3.83;;;0.70;;
38683;SDS011;24910;53.248;-6.134;2022-09-30T04:28:34;1.95;;;0.90;;
38683;SDS011;24910;53.248;-6.134;2022-09-30T04:31:04;2.35;;;1.00;;
38683;SDS011;24910;53.248;-6.134;2022-09-30T04:33:33;1.95;;;0.80;;
38683;SDS011;24910;53.248;-6.134;2022-09-30T04:36:02;2.35;;;1.00;;
38683;SDS011;24910;53.248;-6.134;2022-09-30T04:38:32;4.30;;;0.88;;
38683;SDS011;24910;53.248;-6.134;2022-09-30T04:41:03;1.95;;;0.85;;
38683;SDS011;24910;53.248;-6.134;2022-09-30T04:43:35;1.52;;;0.68;;
38683;SDS011;24910;53.248;-6.134;2022-09-30T04:46:04;1.42;;;0.70;;
38683;SDS011;24910;53.248;-6.134;2022-09-30T04:48:33;1.88;;;0.80;;
38683;SDS011;24910;53.248;-6.134;2022-09-30T04:51:02;2.78;;;0.80;;
38683;SDS011;24910;53.248;-6.134;2022-09-30T04:53:32;2.70;;;1.08;;
38683;SDS011;24910;53.248;-6.134;2022-09-30T04:56:02;1.13;;;0.80;;
38683;SDS011;24910;53.248;-6.134;2022-09-30T04:58:31;4.33;;;1.10;;
38683;SDS011;24910;53.248;-6.134;2022-09-30T05:01:04;2.95;;;0.93;;
38683;SDS011;24910;53.248;-6.134;2022-09-30T05:03:35;2.20;;;0.80;;
38683;SDS011;24910;53.248;-6.134;2022-09-30T05:06:04;2.47;;;1.00;;
38683;SDS011;24910;53.248;-6.134;2022-09-30T05:08:34;1.20;;;0.90;;
38683;SDS011;24910;53.248;-6.134;2022-09-30T05:11:13;3.83;;;1.05;;
38683;SDS011;24910;53.248;-6.134;2022-09-30T05:13:45;1.83;;;1.20;;
38683;SDS011;24910;53.248;-6.134;2022-09-30T05:16:14;2.85;;;1.00;;
38683;SDS011;24910;53.248;-6.134;2022-09-30T05:18:44;2.97;;;1.17;;
38683;SDS011;24910;53.248;-6.134;2022-09-30T05:21:14;2.35;;;1.10;;
38683;SDS011;24910;53.248;-6.134;2022-09-30T05:29:21;2.00;;;1.27;;
38683;SDS011;24910;53.248;-6.134;2022-09-30T05:31:50;3.47;;;1.73;;
38683;SDS011;24910;53.248;-6.134;2022-09-30T05:34:19;4.10;;;1.70;;
38683;SDS011;24910;53.248;-6.134;2022-09-30T05:36:48;5.18;;;1.60;;
38683;SDS011;24910;53.248;-6.134;2022-09-30T05:39:17;4.18;;;1.88;;
38683;SDS011;24910;53.248;-6.134;2022-09-30T05:41:47;3.40;;;2.42;;
38683;SDS011;24910;53.248;-6.134;2022-09-30T05:44:17;2.15;;;1.95;;
38683;SDS011;24910;53.248;-6.134;2022-09-30T05:46:47;3.28;;;2.20;;
38683;SDS011;24910;53.248;-6.134;2022-09-30T05:49:16;4.25;;;2.15;;
38683;SDS011;24910;53.248;-6.134;2022-09-30T05:51:45;2.75;;;2.17;;
38683;SDS011;24910;53.248;-6.134;2022-09-30T05:54:14;3.47;;;2.47;;
38683;SDS011;24910;53.248;-6.134;2022-09-30T05:56:43;3.30;;;2.30;;
38683;SDS011;24910;53.248;-6.134;2022-09-30T05:59:12;3.63;;;2.30;;
38683;SDS011;24910;53.248;-6.134;2022-09-30T06:01:43;3.67;;;2.17;;
38683;SDS011;24910;53.248;-6.134;2022-09-30T06:04:12;3.85;;;2.10;;
38683;SDS011;24910;53.248;-6.134;2022-09-30T06:06:41;3.28;;;2.28;;
38683;SDS011;24910;53.248;-6.134;2022-09-30T06:09:10;2.90;;;1.85;;
38683;SDS011;24910;53.248;-6.134;2022-09-30T06:11:41;2.95;;;2.20;;
38683;SDS011;24910;53.248;-6.134;2022-09-30T06:14:10;2.67;;;2.10;;
38683;SDS011;24910;53.248;-6.134;2022-09-30T06:16:39;3.08;;;2.10;;
38683;SDS011;24910;53.248;-6.134;2022-09-30T06:19:10;3.35;;;2.28;;
38683;SDS011;24910;53.248;-6.134;2022-09-30T06:21:39;4.07;;;1.93;;
38683;SDS011;24910;53.248;-6.134;2022-09-30T06:24:08;2.88;;;1.90;;
38683;SDS011;24910;53.248;-6.134;2022-09-30T06:26:39;2.60;;;2.00;;
38683;SDS011;24910;53.248;-6.134;2022-09-30T06:29:09;2.58;;;1.75;;
38683;SDS011;24910;53.248;-6.134;2022-09-30T06:31:38;2.85;;;1.70;;
38683;SDS011;24910;53.248;-6.134;2022-09-30T06:34:07;3.35;;;1.88;;
38683;SDS011;24910;53.248;-6.134;2022-09-30T06:36:38;3.08;;;1.80;;
38683;SDS011;24910;53.248;-6.134;2022-09-30T06:39:07;2.28;;;1.75;;
38683;SDS011;24910;53.248;-6.134;2022-09-30T06:41:39;5.07;;;1.60;;
38683;SDS011;24910;53.248;-6.134;2022-09-30T06:44:18;4.03;;;1.77;;
38683;SDS011;24910;53.248;-6.134;2022-09-30T06:46:47;2.10;;;1.38;;
38683;SDS011;24910;53.248;-6.134;2022-09-30T06:49:21;3.80;;;1.50;;
38683;SDS011;24910;53.248;-6.134;2022-09-30T06:51:51;2.25;;;1.30;;
38683;SDS011;24910;53.248;-6.134;2022-09-30T06:54:20;2.33;;;1.20;;
38683;SDS011;24910;53.248;-6.134;2022-09-30T06:56:49;5.55;;;1.45;;
38683;SDS011;24910;53.248;-6.134;2022-09-30T06:59:20;3.53;;;1.20;;
38683;SDS011;24910;53.248;-6.134;2022-09-30T07:01:49;3.55;;;1.10;;
38683;SDS011;24910;53.248;-6.134;2022-09-30T07:04:18;1.65;;;0.90;;
38683;SDS011;24910;53.248;-6.134;2022-09-30T07:06:48;1.73;;;0.90;;
38683;SDS011;24910;53.248;-6.134;2022-09-30T07:09:17;3.53;;;0.87;;
38683;SDS011;24910;53.248;-6.134;2022-09-30T07:11:47;0.98;;;0.85;;
38683;SDS011;24910;53.248;-6.134;2022-09-30T07:14:16;3.42;;;0.80;;
38683;SDS011;24910;53.248;-6.134;2022-09-30T07:16:45;1.95;;;0.80;;
38683;SDS011;24910;53.248;-6.134;2022-09-30T07:19:14;1.20;;;0.75;;
38683;SDS011;24910;53.248;-6.134;2022-09-30T07:21:43;1.75;;;0.85;;
38683;SDS011;24910;53.248;-6.134;2022-09-30T07:24:14;2.75;;;0.80;;
38683;SDS011;24910;53.248;-6.134;2022-09-30T07:26:43;2.85;;;0.80;;
38683;SDS011;24910;53.248;-6.134;2022-09-30T07:29:12;3.50;;;0.90;;
38683;SDS011;24910;53.248;-6.134;2022-09-30T07:31:41;2.55;;;0.70;;
38683;SDS011;24910;53.248;-6.134;2022-09-30T07:34:11;5.57;;;0.65;;
38683;SDS011;24910;53.248;-6.134;2022-09-30T07:36:41;0.85;;;0.60;;
38683;SDS011;24910;53.248;-6.134;2022-09-30T07:39:11;3.47;;;1.02;;
38683;SDS011;24910;53.248;-6.134;2022-09-30T07:41:41;3.33;;;0.65;;
38683;SDS011;24910;53.248;-6.134;2022-09-30T07:44:11;4.85;;;0.88;;
38683;SDS011;24910;53.248;-6.134;2022-09-30T07:46:42;3.08;;;0.75;;
38683;SDS011;24910;53.248;-6.134;2022-09-30T07:49:13;1.63;;;0.80;;
38683;SDS011;24910;53.248;-6.134;2022-09-30T07:51:51;3.47;;;0.90;;
38683;SDS011;24910;53.248;-6.134;2022-09-30T07:54:22;5.85;;;1.08;;
38683;SDS011;24910;53.248;-6.134;2022-09-30T07:56:54;4.32;;;1.00;;
38683;SDS011;24910;53.248;-6.134;2022-09-30T07:59:37;3.25;;;0.90;;
38683;SDS011;24910;53.248;-6.134;2022-09-30T08:02:10;3.13;;;0.73;;
38683;SDS011;24910;53.248;-6.134;2022-09-30T08:04:42;1.23;;;0.60;;
38683;SDS011;24910;53.248;-6.134;2022-09-30T08:07:11;7.03;;;0.95;;
38683;SDS011;24910;53.248;-6.134;2022-09-30T08:09:41;3.53;;;0.88;;
38683;SDS011;24910;53.248;-6.134;2022-09-30T08:12:12;2.47;;;0.80;;
38683;SDS011;24910;53.248;-6.134;2022-09-30T08:14:41;4.10;;;0.98;;
38683;SDS011;24910;53.248;-6.134;2022-09-30T08:17:10;3.28;;;1.10;;
38683;SDS011;24910;53.248;-6.134;2022-09-30T08:19:40;4.03;;;1.00;;
38683;SDS011;24910;53.248;-6.134;2022-09-30T08:22:10;4.43;;;0.80;;
38683;SDS011;24910;53.248;-6.134;2022-09-30T08:24:41;3.33;;;0.80;;
38683;SDS011;24910;53.248;-6.134;2022-09-30T08:27:10;2.72;;;1.00;;
38683;SDS011;24910;53.248;-6.134;2022-09-30T08:29:40;3.47;;;0.80;;
38683;SDS011;24910;53.248;-6.134;2022-09-30T08:32:20;2.50;;;0.75;;
38683;SDS011;24910;53.248;-6.134;2022-09-30T08:34:49;2.78;;;0.70;;
38683;SDS011;24910;53.248;-6.134;2022-09-30T08:37:18;2.70;;;0.80;;
38683;SDS011;24910;53.248;-6.134;2022-09-30T08:39:47;3.78;;;0.80;;
38683;SDS011;24910;53.248;-6.134;2022-09-30T08:42:19;3.72;;;0.88;;
38683;SDS011;24910;53.248;-6.134;2022-09-30T08:45:09;2.38;;;0.50;;
38683;SDS011;24910;53.248;-6.134;2022-09-30T08:47:49;2.97;;;0.60;;
38683;SDS011;24910;53.248;-6.134;2022-09-30T08:50:27;1.63;;;0.60;;
38683;SDS011;24910;53.248;-6.134;2022-09-30T08:53:02;2.10;;;0.40;;
38683;SDS011;24910;53.248;-6.134;2022-09-30T08:55:38;3.10;;;0.50;;
38683;SDS011;24910;53.248;-6.134;2022-09-30T08:58:13;2.38;;;0.50;;
38683;SDS011;24910;53.248;-6.134;2022-09-30T09:00:50;0.57;;;0.38;;
38683;SDS011;24910;53.248;-6.134;2022-09-30T09:03:27;2.10;;;0.50;;
38683;SDS011;24910;53.248;-6.134;2022-09-30T09:06:03;4.88;;;0.50;;
38683;SDS011;24910;53.248;-6.134;2022-09-30T09:08:47;0.70;;;0.40;;
38683;SDS011;24910;53.248;-6.134;2022-09-30T09:11:28;1.10;;;0.50;;
38683;SDS011;24910;53.248;-6.134;2022-09-30T09:14:12;1.02;;;0.40;;
38683;SDS011;24910;53.248;-6.134;2022-09-30T09:16:56;2.80;;;0.60;;
38683;SDS011;24910;53.248;-6.134;2022-09-30T09:19:40;1.60;;;0.40;;
38683;SDS011;24910;53.248;-6.134;2022-09-30T09:22:13;0.95;;;0.38;;
38683;SDS011;24910;53.248;-6.134;2022-09-30T09:24:46;0.40;;;0.40;;
38683;SDS011;24910;53.248;-6.134;2022-09-30T09:27:20;0.68;;;0.40;;
38683;SDS011;24910;53.248;-6.134;2022-09-30T09:29:57;0.90;;;0.40;;
38683;SDS011;24910;53.248;-6.134;2022-09-30T09:32:34;0.32;;;0.32;;
38683;SDS011;24910;53.248;-6.134;2022-09-30T09:35:05;0.85;;;0.57;;
38683;SDS011;24910;53.248;-6.134;2022-09-30T09:37:44;2.70;;;0.40;;
38683;SDS011;24910;53.248;-6.134;2022-09-30T09:40:38;0.30;;;0.30;;
38683;SDS011;24910;53.248;-6.134;2022-09-30T09:43:26;1.48;;;0.40;;
38683;SDS011;24910;53.248;-6.134;2022-09-30T09:46:02;0.30;;;0.30;;
38683;SDS011;24910;53.248;-6.134;2022-09-30T09:48:40;1.65;;;0.40;;
38683;SDS011;24910;53.248;-6.134;2022-09-30T09:51:12;1.38;;;0.40;;
38683;SDS011;24910;53.248;-6.134;2022-09-30T09:53:49;1.17;;;0.40;;
38683;SDS011;24910;53.248;-6.134;2022-09-30T09:56:20;3.10;;;0.60;;
38683;SDS011;24910;53.248;-6.134;2022-09-30T09:59:09;0.73;;;0.50;;
38683;SDS011;24910;53.248;-6.134;2022-09-30T10:01:44;0.75;;;0.60;;
38683;SDS011;24910;53.248;-6.134;2022-09-30T10:04:18;2.47;;;0.60;;
38683;SDS011;24910;53.248;-6.134;2022-09-30T10:06:51;1.30;;;0.50;;
38683;SDS011;24910;53.248;-6.134;2022-09-30T10:09:22;1.80;;;0.55;;
38683;SDS011;24910;53.248;-6.134;2022-09-30T10:14:58;4.30;;;0.75;;
38683;SDS011;24910;53.248;-6.134;2022-09-30T10:17:30;1.60;;;0.70;;
38683;SDS011;24910;53.248;-6.134;2022-09-30T10:20:03;2.92;;;0.70;;
38683;SDS011;24910;53.248;-6.134;2022-09-30T10:22:34;2.58;;;0.70;;
38683;SDS011;24910;53.248;-6.134;2022-09-30T10:25:15;2.75;;;0.60;;
38683;SDS011;24910;53.248;-6.134;2022-09-30T10:27:51;1.77;;;0.70;;
38683;SDS011;24910;53.248;-6.134;2022-09-30T10:33:22;4.32;;;0.65;;
38683;SDS011;24910;53.248;-6.134;2022-09-30T10:35:59;2.30;;;0.50;;
38683;SDS011;24910;53.248;-6.134;2022-09-30T10:38:31;0.30;;;0.20;;
38683;SDS011;24910;53.248;-6.134;2022-09-30T10:41:03;2.88;;;0.50;;
38683;SDS011;24910;53.248;-6.134;2022-09-30T10:43:35;0.40;;;0.30;;
38683;SDS011;24910;53.248;-6.134;2022-09-30T10:46:08;0.30;;;0.13;;
38683;SDS011;24910;53.248;-6.134;2022-09-30T10:48:52;1.25;;;0.17;;
38683;SDS011;24910;53.248;-6.134;2022-09-30T10:51:26;0.90;;;0.28;;
38683;SDS011;24910;53.248;-6.134;2022-09-30T10:53:59;0.20;;;0.20;;
38683;SDS011;24910;53.248;-6.134;2022-09-30T10:56:32;0.10;;;0.10;;
38683;SDS011;24910;53.248;-6.134;2022-09-30T10:59:10;0.28;;;0.10;;
38683;SDS011;24910;53.248;-6.134;2022-09-30T11:01:47;0.38;;;0.20;;
38683;SDS011;24910;53.248;-6.134;2022-09-30T11:04:25;0.40;;;0.30;;
38683;SDS011;24910;53.248;-6.134;2022-09-30T11:07:00;0.17;;;0.17;;
38683;SDS011;24910;53.248;-6.134;2022-09-30T11:09:42;0.75;;;0.10;;
38683;SDS011;24910;53.248;-6.134;2022-09-30T11:12:19;1.67;;;0.30;;
38683;SDS011;24910;53.248;-6.134;2022-09-30T11:14:56;0.13;;;0.10;;
38683;SDS011;24910;53.248;-6.134;2022-09-30T11:17:32;1.77;;;0.20;;
38683;SDS011;24910;53.248;-6.134;2022-09-30T11:20:13;0.82;;;0.20;;
38683;SDS011;24910;53.248;-6.134;2022-09-30T11:22:50;0.20;;;0.20;;
38683;SDS011;24910;53.248;-6.134;2022-09-30T11:25:26;0.52;;;0.20;;
38683;SDS011;24910;53.248;-6.134;2022-09-30T11:28:10;2.10;;;0.40;;
38683;SDS011;24910;53.248;-6.134;2022-09-30T11:33:42;1.48;;;0.20;;
38683;SDS011;24910;53.248;-6.134;2022-09-30T11:36:28;0.10;;;0.10;;
38683;SDS011;24910;53.248;-6.134;2022-09-30T11:39:21;0.47;;;0.10;;
38683;SDS011;24910;53.248;-6.134;2022-09-30T11:42:02;0.32;;;0.22;;
38683;SDS011;24910;53.248;-6.134;2022-09-30T11:44:39;0.52;;;0.13;;
38683;SDS011;24910;53.248;-6.134;2022-09-30T11:53:13;2.50;;;1.73;;
38683;SDS011;24910;53.248;-6.134;2022-09-30T11:55:58;1.27;;;0.50;;
38683;SDS011;24910;53.248;-6.134;2022-09-30T11:58:38;0.40;;;0.40;;
38683;SDS011;24910;53.248;-6.134;2022-09-30T12:01:15;0.50;;;0.22;;
38683;SDS011;24910;53.248;-6.134;2022-09-30T12:03:52;0.50;;;0.32;;
38683;SDS011;24910;53.248;-6.134;2022-09-30T12:06:27;2.45;;;1.40;;
38683;SDS011;24910;53.248;-6.134;2022-09-30T12:09:05;0.30;;;0.30;;
38683;SDS011;24910;53.248;-6.134;2022-09-30T12:11:45;0.22;;;0.22;;
38683;SDS011;24910;53.248;-6.134;2022-09-30T12:14:22;0.50;;;0.45;;
38683;SDS011;24910;53.248;-6.134;2022-09-30T12:16:55;1.15;;;0.60;;
38683;SDS011;24910;53.248;-6.134;2022-09-30T12:22:01;0.60;;;0.60;;
38683;SDS011;24910;53.248;-6.134;2022-09-30T12:24:37;1.15;;;0.30;;
38683;SDS011;24910;53.248;-6.134;2022-09-30T12:27:12;0.40;;;0.40;;
38683;SDS011;24910;53.248;-6.134;2022-09-30T12:29:46;1.60;;;0.68;;
38683;SDS011;24910;53.248;-6.134;2022-09-30T12:36:13;0.20;;;0.20;;
38683;SDS011;24910;53.248;-6.134;2022-09-30T12:39:08;2.00;;;1.70;;
38683;SDS011;24910;53.248;-6.134;2022-09-30T12:42:06;0.80;;;0.60;;
38683;SDS011;24910;53.248;-6.134;2022-09-30T12:45:15;4.68;;;1.10;;
38683;SDS011;24910;53.248;-6.134;2022-09-30T12:47:58;7.53;;;1.20;;
38683;SDS011;24910;53.248;-6.134;2022-09-30T12:50:33;6.85;;;1.30;;
38683;SDS011;24910;53.248;-6.134;2022-09-30T12:53:16;5.50;;;1.27;;
38683;SDS011;24910;53.248;-6.134;2022-09-30T12:55:49;7.57;;;1.48;;
38683;SDS011;24910;53.248;-6.134;2022-09-30T12:58:19;9.00;;;1.70;;
38683;SDS011;24910;53.248;-6.134;2022-09-30T13:00:59;7.78;;;1.90;;
38683;SDS011;24910;53.248;-6.134;2022-09-30T13:03:47;11.27;;;2.17;;
38683;SDS011;24910;53.248;-6.134;2022-09-30T13:06:19;10.52;;;1.42;;
38683;SDS011;24910;53.248;-6.134;2022-09-30T13:09:05;9.30;;;1.80;;
38683;SDS011;24910;53.248;-6.134;2022-09-30T13:11:45;14.27;;;2.90;;
38683;SDS011;24910;53.248;-6.134;2022-09-30T13:17:23;10.63;;;2.45;;
38683;SDS011;24910;53.248;-6.134;2022-09-30T13:19:53;11.05;;;2.40;;
38683;SDS011;24910;53.248;-6.134;2022-09-30T13:25:24;7.68;;;1.67;;
38683;SDS011;24910;53.248;-6.134;2022-09-30T13:28:25;8.88;;;1.35;;
38683;SDS011;24910;53.248;-6.134;2022-09-30T13:31:12;8.82;;;1.85;;
38683;SDS011;24910;53.248;-6.134;2022-09-30T13:33:56;11.48;;;1.75;;
38683;SDS011;24910;53.248;-6.134;2022-09-30T13:36:38;12.95;;;1.98;;
38683;SDS011;24910;53.248;-6.134;2022-09-30T13:39:19;14.60;;;2.53;;
38683;SDS011;24910;53.248;-6.134;2022-09-30T13:41:57;11.00;;;1.60;;
38683;SDS011;24910;53.248;-6.134;2022-09-30T13:44:36;11.32;;;1.63;;
38683;SDS011;24910;53.248;-6.134;2022-09-30T13:47:16;11.82;;;1.70;;
38683;SDS011;24910;53.248;-6.134;2022-09-30T13:49:54;9.75;;;1.77;;
38683;SDS011;24910;53.248;-6.134;2022-09-30T13:52:28;13.10;;;2.22;;
38683;SDS011;24910;53.248;-6.134;2022-09-30T13:55:04;9.90;;;1.83;;
38683;SDS011;24910;53.248;-6.134;2022-09-30T13:57:41;13.05;;;2.03;;
38683;SDS011;24910;53.248;-6.134;2022-09-30T14:00:19;10.48;;;1.73;;
38683;SDS011;24910;53.248;-6.134;2022-09-30T14:02:59;12.13;;;2.15;;
38683;SDS011;24910;53.248;-6.134;2022-09-30T14:05:56;13.35;;;2.00;;
38683;SDS011;24910;53.248;-6.134;2022-09-30T14:08:51;9.63;;;1.63;;
38683;SDS011;24910;53.248;-6.134;2022-09-30T14:11:38;11.38;;;1.98;;
38683;SDS011;24910;53.248;-6.134;2022-09-30T14:14:29;13.27;;;2.60;;
38683;SDS011;24910;53.248;-6.134;2022-09-30T14:17:21;16.65;;;2.35;;
38683;SDS011;24910;53.248;-6.134;2022-09-30T14:20:02;12.02;;;2.25;;
38683;SDS011;24910;53.248;-6.134;2022-09-30T14:22:43;9.82;;;1.90;;
38683;SDS011;24910;53.248;-6.134;2022-09-30T14:25:13;13.52;;;2.05;;
38683;SDS011;24910;53.248;-6.134;2022-09-30T14:30:19;8.93;;;1.92;;
38683;SDS011;24910;53.248;-6.134;2022-09-30T14:32:51;11.02;;;1.80;;
38683;SDS011;24910;53.248;-6.134;2022-09-30T14:35:22;11.63;;;2.28;;
38683;SDS011;24910;53.248;-6.134;2022-09-30T14:37:57;12.65;;;2.15;;
38683;SDS011;24910;53.248;-6.134;2022-09-30T14:40:29;11.00;;;2.03;;
38683;SDS011;24910;53.248;-6.134;2022-09-30T14:42:59;8.65;;;1.30;;
38683;SDS011;24910;53.248;-6.134;2022-09-30T14:45:32;10.23;;;1.75;;
38683;SDS011;24910;53.248;-6.134;2022-09-30T14:48:05;7.63;;;1.73;;
38683;SDS011;24910;53.248;-6.134;2022-09-30T14:50:40;8.73;;;1.20;;
38683;SDS011;24910;53.248;-6.134;2022-09-30T14:53:25;8.10;;;1.65;;
38683;SDS011;24910;53.248;-6.134;2022-09-30T14:55:55;7.80;;;2.20;;
38683;SDS011;24910;53.248;-6.134;2022-09-30T14:58:26;8.90;;;1.90;;
38683;SDS011;24910;53.248;-6.134;2022-09-30T15:01:01;9.95;;;1.85;;
38683;SDS011;24910;53.248;-6.134;2022-09-30T15:03:33;8.23;;;1.67;;
38683;SDS011;24910;53.248;-6.134;2022-09-30T15:08:35;14.68;;;1.83;;
38683;SDS011;24910;53.248;-6.134;2022-09-30T15:11:04;8.83;;;1.70;;
38683;SDS011;24910;53.248;-6.134;2022-09-30T15:13:33;10.45;;;1.63;;
38683;SDS011;24910;53.248;-6.134;2022-09-30T15:16:20;8.85;;;1.48;;
38683;SDS011;24910;53.248;-6.134;2022-09-30T15:18:50;6.22;;;1.38;;
38683;SDS011;24910;53.248;-6.134;2022-09-30T15:21:20;10.70;;;3.10;;
38683;SDS011;24910;53.248;-6.134;2022-09-30T15:23:53;10.35;;;1.88;;
38683;SDS011;24910;53.248;-6.134;2022-09-30T15:26:24;12.85;;;1.80;;
38683;SDS011;24910;53.248;-6.134;2022-09-30T15:28:54;8.93;;;1.92;;
38683;SDS011;24910;53.248;-6.134;2022-09-30T15:31:23;15.60;;;2.10;;
38683;SDS011;24910;53.248;-6.134;2022-09-30T15:34:02;14.45;;;2.17;;
38683;SDS011;24910;53.248;-6.134;2022-09-30T15:36:33;9.45;;;1.48;;
38683;SDS011;24910;53.248;-6.134;2022-09-30T15:39:06;11.18;;;1.63;;
38683;SDS011;24910;53.248;-6.134;2022-09-30T15:41:46;12.32;;;2.00;;
38683;SDS011;24910;53.248;-6.134;2022-09-30T15:44:17;8.40;;;1.33;;
38683;SDS011;24910;53.248;-6.134;2022-09-30T15:46:59;9.77;;;1.63;;
38683;SDS011;24910;53.248;-6.134;2022-09-30T15:49:31;10.85;;;1.90;;
38683;SDS011;24910;53.248;-6.134;2022-09-30T15:52:25;11.18;;;1.85;;
38683;SDS011;24910;53.248;-6.134;2022-09-30T15:55:01;8.68;;;1.63;;
38683;SDS011;24910;53.248;-6.134;2022-09-30T15:57:54;7.57;;;1.38;;
38683;SDS011;24910;53.248;-6.134;2022-09-30T16:00:33;10.20;;;2.92;;
38683;SDS011;24910;53.248;-6.134;2022-09-30T16:03:17;9.63;;;2.80;;
38683;SDS011;24910;53.248;-6.134;2022-09-30T16:06:02;13.35;;;2.45;;
38683;SDS011;24910;53.248;-6.134;2022-09-30T16:08:37;10.07;;;2.67;;
38683;SDS011;24910;53.248;-6.134;2022-09-30T16:11:17;11.13;;;2.25;;
38683;SDS011;24910;53.248;-6.134;2022-09-30T16:13:49;16.67;;;2.30;;
38683;SDS011;24910;53.248;-6.134;2022-09-30T16:16:20;11.30;;;1.88;;
38683;SDS011;24910;53.248;-6.134;2022-09-30T16:18:52;11.00;;;1.95;;
38683;SDS011;24910;53.248;-6.134;2022-09-30T16:21:26;9.32;;;1.95;;
38683;SDS011;24910;53.248;-6.134;2022-09-30T16:23:58;13.77;;;2.20;;